Terminal Aerodrome Forecast
Issued by NWS

Home | Current Version | Previous Version | Text Only | Print | Product List | Glossary On
Versions: 1 2 3 4 5 6 7 8 9 10 11 12 13 14 15 16 17
369
FTUS44 KTSA 252340
TAFBVO
TAF
KBVO 252340Z 2600/2624 VRB06KT P6SM BKN025
     FM260400 VRB03KT P6SM SCT025
      TEMPO 2610/2614 3SM BR
     FM261400 13010KT P6SM SCT250
     FM262100 13011KT P6SM BKN050 PROB30 2621/2624 4SM -TSRA
      BKN040CB=

USA.gov is the U.S. government's official web portal to all federal, state and local government web resources and services.